Sabillasville, MD

12:56 AM EDT on July 05, 2015 (GMT -0400)
Fountain Dale | | Change Station
CLOSE
Current Station
Airport
Location: Fountain Dale,
Elevation: 899 ft
Nearby Weather Stations

Elev 899 ft 39.73 °N, 77.43 °W | Updated 19 minutes ago

Scattered Clouds
Scattered Clouds
64 °F
Feels Like 64 °F
N
0
Wind Variable Wind from North

Today
High -- | Low -- °F
--% Chance of Precip.
Yesterday
High -- | Low -- °F
Precip. -- in
5:47 AM 8:40 PM
Waning Gibbous, 88% visible
Pressure 30.07 in
Visibility 2.0 miles
Clouds Scattered Clouds 900 ft
Dew Point 63 °F
Humidity 94%
Rainfall 0.00 in
Snow Depth Not available.
UV 0 out of 12
Pollen .50 out of 12
Air Quality Not available.
Flu Activity Not available.
SPECI KRYT 050437Z AUTO 00000KT 2SM BR SCT009 18/17 A3007 RMK AO2 $

More Conditions Fewer Conditions

Pressure 30.07 in
Visibility 2.0 miles
Clouds Scattered Clouds 900 ft
Dew Point 63 °F
Humidity 94%
Rainfall 0.00 in
Snow Depth Not available.
UV 0 out of 12
Pollen .50 out of 12
Air Quality Not available.
Flu Activity Not available.
SPECI KRYT 050437Z AUTO 00000KT 2SM BR SCT009 18/17 A3007 RMK AO2 $

More Conditions Fewer Conditions

10-Day Weather Forecast

×

Almanac

Astronomy

Jul. 05, 2015 Rise Set
Actual Time
Civil Twilight
Nautical Twilight
Astronomical Twilight
Moon
Length of Visible Light
Length of Day
Tomorrow will be .
, % of the Moon is Illuminated

Today's Extremes

State Highs State Lows

Community

WunderPhotos

Upload Photos

1,835,200 photos uploaded!

WunderBlogs® & News

Nearby

Air Quality

  Air Quality AQ Index Pollutant
Not available.

Snow Depth

Station Depth Elevation

Earthquake Activity

City Distance Mag. Time & Date
Minimum magnitude displayed is 2.5.

Coastal Water Temperatures

Place Temperature

Stations

Nearby Weather Stations

Station Location Temp. Windchill Dew Point Humidity Wind Precip. Elev Updated Type